Time;durP1;ratioP1;P1;durP2;ratioP2;P2;SDS_P1;SDS_P2;PMS_P1;PMS_P2;Temp;Humidity;BMP_temperature;BMP_pressure;BME280_temperature;BME280_humidity;BME280_pressure;Samples;Min_cycle;Max_cycle;Signal;HPM_P1;HPM_P2
2021/05/30 00:02:16;;;;;;;11.77;4.13;;;;;;;8.84;49.43;102890.09;5005706;28;20038;-68
2021/05/30 00:04:43;;;;;;;12.30;5.47;;;;;;;8.73;49.25;102892.69;5005485;28;20056;-67
2021/05/30 00:07:09;;;;;;;18.45;6.43;;;;;;;8.76;49.73;102894.44;5005572;28;20044;-67
2021/05/30 00:09:38;;;;;;;14.75;6.32;;;;;;;8.90;49.61;102894.44;5005966;28;20037;-67
2021/05/30 00:12:04;;;;;;;14.30;6.65;;;;;;;9.01;49.68;102891.81;5005888;28;20308;-67
2021/05/30 00:14:30;;;;;;;12.35;5.15;;;;;;;8.84;49.37;102886.63;5005503;28;20049;-66
2021/05/30 00:16:55;;;;;;;11.02;5.43;;;;;;;9.16;48.81;102894.38;4996541;28;20156;-67
2021/05/30 00:19:21;;;;;;;17.40;6.72;;;;;;;8.77;49.15;102893.56;5005674;28;20442;-67
2021/05/30 00:21:46;;;;;;;15.55;6.35;;;;;;;8.89;49.67;102896.16;5004511;28;20042;-67
2021/05/30 00:24:12;;;;;;;14.68;6.78;;;;;;;9.04;49.55;102897.03;5005624;28;20494;-67
2021/05/30 00:26:38;;;;;;;12.25;4.78;;;;;;;9.13;49.37;102904.84;5006194;28;20034;-67
2021/05/30 00:29:04;;;;;;;19.95;6.35;;;;;;;9.14;48.88;102898.75;5006229;28;20041;-68
2021/05/30 00:31:30;;;;;;;12.57;4.97;;;;;;;9.22;48.67;102896.13;5003741;28;20034;-67
2021/05/30 00:33:55;;;;;;;16.55;5.43;;;;;;;8.93;49.31;102900.50;5007813;28;20049;-67
2021/05/30 00:36:21;;;;;;;13.82;4.72;;;;;;;9.23;47.85;102898.75;5004914;28;20034;-68
2021/05/30 00:38:46;;;;;;;12.90;4.95;;;;;;;9.27;48.38;102900.44;5006289;28;20579;-69
2021/05/30 00:41:12;;;;;;;10.45;4.70;;;;;;;9.05;48.23;102903.97;5005408;28;20029;-68
2021/05/30 00:43:49;;;;;;;12.35;5.45;;;;;;;8.86;48.71;102895.31;5006211;28;20690;-68
2021/05/30 00:46:15;;;;;;;7.03;4.70;;;;;;;9.03;48.95;102901.38;5003584;28;20087;-68
2021/05/30 00:48:41;;;;;;;15.52;6.22;;;;;;;9.12;48.40;102896.16;5006029;28;20038;-68
2021/05/30 00:51:07;;;;;;;12.07;4.90;;;;;;;8.88;49.05;102898.78;5005746;28;20034;-68
2021/05/30 00:53:34;;;;;;;14.80;5.55;;;;;;;8.94;48.80;102899.66;5000675;28;20071;-68
2021/05/30 00:56:04;;;;;;;10.18;4.82;;;;;;;8.99;48.36;102889.22;4992627;28;20049;-68
2021/05/30 00:58:29;;;;;;;9.05;4.55;;;;;;;9.01;48.71;102897.03;5004981;28;20565;-67
2021/05/30 01:00:54;;;;;;;15.60;6.00;;;;;;;8.84;49.36;102897.06;5003753;28;20136;-67
2021/05/30 01:03:20;;;;;;;17.88;6.50;;;;;;;8.94;49.14;102894.44;5004738;28;20141;-68
2021/05/30 01:05:47;;;;;;;15.75;5.80;;;;;;;8.94;49.25;102894.44;5005048;28;20117;-67
2021/05/30 01:08:15;;;;;;;18.10;6.85;;;;;;;8.94;48.45;102897.03;4997784;28;20052;-69
2021/05/30 01:10:46;;;;;;;17.95;5.93;;;;;;;9.03;49.20;102895.28;5005343;28;20371;-69
2021/05/30 01:13:13;;;;;;;17.25;6.18;;;;;;;8.93;48.78;102895.28;4998595;28;20134;-69
2021/05/30 01:15:40;;;;;;;12.93;5.60;;;;;;;9.14;48.95;102898.75;5006003;28;20065;-69
2021/05/30 01:18:07;;;;;;;13.77;5.10;;;;;;;9.09;47.90;102896.13;5003919;28;20041;-69
2021/05/30 01:20:33;;;;;;;11.75;4.90;;;;;;;9.23;48.87;102896.13;5020517;28;20034;-69
2021/05/30 01:23:05;;;;;;;23.25;6.85;;;;;;;9.07;48.24;102897.03;5005560;28;20034;-70
2021/05/30 01:25:30;;;;;;;9.40;4.53;;;;;;;9.05;49.08;102909.19;4999139;28;20025;-69
2021/05/30 01:27:56;;;;;;;21.40;5.63;;;;;;;8.98;49.37;102909.22;5005315;28;20037;-67
2021/05/30 01:30:22;;;;;;;13.00;5.57;;;;;;;9.03;49.08;102908.31;5004925;28;20050;-66
2021/05/30 01:32:49;;;;;;;19.95;6.68;;;;;;;9.09;48.54;102901.34;5004063;28;20486;-67
2021/05/30 01:35:15;;;;;;;17.02;6.18;;;;;;;9.04;48.80;102904.84;4998297;28;20025;-66
2021/05/30 01:37:41;;;;;;;13.00;4.78;;;;;;;8.91;48.64;102902.25;5002405;28;20045;-66
2021/05/30 01:40:08;;;;;;;14.40;5.25;;;;;;;9.12;49.11;102910.91;5007873;28;20033;-67
2021/05/30 01:42:34;;;;;;;10.15;4.32;;;;;;;9.20;48.57;102906.56;5004384;28;20338;-67
2021/05/30 01:45:00;;;;;;;10.88;4.82;;;;;;;9.13;48.74;102902.25;5004112;28;20038;-67
2021/05/30 01:47:26;;;;;;;19.20;5.28;;;;;;;9.13;48.92;102897.00;5001701;28;20037;-67
2021/05/30 01:49:51;;;;;;;13.05;5.95;;;;;;;9.17;48.63;102902.22;5005062;28;20414;-73
2021/05/30 01:52:17;;;;;;;19.45;6.30;;;;;;;9.04;48.65;102903.13;4998993;28;20029;-71
2021/05/30 01:54:48;;;;;;;13.98;5.78;;;;;;;9.16;48.43;102895.28;5005451;28;20487;-71
2021/05/30 01:57:15;;;;;;;17.60;7.07;;;;;;;8.97;49.09;102897.03;5020368;28;20099;-71
2021/05/30 01:59:43;;;;;;;18.35;7.10;;;;;;;8.97;48.65;102899.63;4997111;28;20376;-72
2021/05/30 02:02:09;;;;;;;15.90;6.25;;;;;;;8.93;49.25;102899.66;5005334;28;20593;-72
2021/05/30 02:04:44;;;;;;;10.60;5.38;;;;;;;9.10;49.30;102897.03;5003775;28;20283;-72
2021/05/30 02:07:10;;;;;;;12.13;5.82;;;;;;;9.05;48.87;102897.00;5003065;28;20034;-72
2021/05/30 02:09:37;;;;;;;13.68;5.97;;;;;;;8.95;48.53;102897.91;4997780;28;20537;-72
2021/05/30 02:12:07;;;;;;;15.52;5.85;;;;;;;8.96;48.87;102900.53;5003656;28;20038;-73
2021/05/30 02:14:33;;;;;;;17.50;5.82;;;;;;;8.74;49.35;102899.66;4980704;28;20509;-73
2021/05/30 02:16:59;;;;;;;20.63;6.13;;;;;;;8.69;49.77;102895.28;5003632;28;20404;-72
2021/05/30 02:19:24;;;;;;;16.08;5.93;;;;;;;8.80;49.69;102887.47;5005553;28;20030;-71
2021/05/30 02:21:52;;;;;;;15.25;6.50;;;;;;;8.71;49.83;102891.81;5004773;28;20088;-71
2021/05/30 02:24:19;;;;;;;14.70;6.13;;;;;;;8.76;49.46;102897.03;5018701;28;21708;-72
2021/05/30 02:26:45;;;;;;;9.50;5.18;;;;;;;8.90;49.47;102899.66;4986384;28;20033;-72
2021/05/30 02:29:22;;;;;;;13.15;6.20;;;;;;;8.82;49.12;102907.47;5004013;28;20399;-71
2021/05/30 02:31:47;;;;;;;15.82;6.95;;;;;;;8.84;48.82;102912.69;5004487;28;20096;-72
2021/05/30 02:34:13;;;;;;;18.33;6.25;;;;;;;8.90;49.02;102913.56;5003479;28;20025;-71
2021/05/30 02:36:38;;;;;;;14.98;5.63;;;;;;;8.98;48.65;102914.44;5004407;28;20029;-72
2021/05/30 02:39:04;;;;;;;16.65;6.38;;;;;;;8.97;48.50;102912.69;5004325;28;20065;-72
2021/05/30 02:41:29;;;;;;;11.77;6.07;;;;;;;8.85;48.94;102904.88;5004162;28;20029;-72
2021/05/30 02:43:55;;;;;;;17.88;7.38;;;;;;;8.91;48.99;102914.44;5003804;28;20042;-69
2021/05/30 02:46:20;;;;;;;20.80;7.45;;;;;;;8.72;49.00;102906.63;5003302;28;20034;-69
2021/05/30 02:48:45;;;;;;;14.13;5.78;;;;;;;8.83;49.16;102904.00;5004985;28;20048;-68
2021/05/30 02:51:11;;;;;;;28.40;8.07;;;;;;;8.83;48.76;102911.84;5004110;28;20443;-70
2021/05/30 02:53:37;;;;;;;15.13;6.18;;;;;;;8.89;49.01;102909.19;5003559;28;20073;-72
2021/05/30 02:56:03;;;;;;;19.83;5.78;;;;;;;8.95;48.82;102919.63;5003173;28;20041;-72
2021/05/30 02:58:29;;;;;;;12.02;5.65;;;;;;;9.01;48.66;102913.56;5017056;28;20176;-72
2021/05/30 03:00:56;;;;;;;20.10;7.03;;;;;;;8.93;49.00;102917.91;5001440;28;20037;-70
2021/05/30 03:03:22;;;;;;;13.30;6.93;;;;;;;9.03;49.10;102916.16;5003119;28;20109;-66
2021/05/30 03:05:48;;;;;;;13.45;6.55;;;;;;;9.08;49.31;102911.81;5002004;28;20112;-67
2021/05/30 03:08:13;;;;;;;17.67;7.95;;;;;;;8.93;48.74;102905.72;5003312;28;20038;-66
2021/05/30 03:10:39;;;;;;;24.92;8.85;;;;;;;8.73;49.34;102910.09;4979151;28;20053;-66
2021/05/30 03:13:05;;;;;;;21.35;7.70;;;;;;;8.67;49.72;102910.94;5002530;28;20040;-66
2021/05/30 03:15:30;;;;;;;21.45;7.93;;;;;;;8.74;49.57;102909.22;5002947;28;20475;-66
2021/05/30 03:17:56;;;;;;;16.65;8.48;;;;;;;8.82;49.66;102909.22;5003799;28;20045;-66
2021/05/30 03:20:22;;;;;;;18.23;8.60;;;;;;;8.84;48.93;102908.34;5005234;28;20221;-66
2021/05/30 03:22:48;;;;;;;19.63;8.73;;;;;;;8.88;48.72;102915.31;5005826;28;20021;-66
2021/05/30 03:25:14;;;;;;;25.10;7.03;;;;;;;8.66;49.40;102917.00;5007528;28;20087;-66
2021/05/30 03:27:40;;;;;;;12.70;6.25;;;;;;;8.72;49.59;102914.44;5005984;28;20093;-67
2021/05/30 03:30:07;;;;;;;10.50;6.07;;;;;;;8.77;49.37;102915.28;5007458;28;20856;-66
2021/05/30 03:32:33;;;;;;;17.83;6.13;;;;;;;8.74;49.43;102914.44;5006218;28;20042;-67
2021/05/30 03:34:58;;;;;;;14.00;5.72;;;;;;;8.80;48.67;102916.16;5006344;28;20041;-67
2021/05/30 03:37:24;;;;;;;19.92;7.47;;;;;;;8.70;49.31;102921.34;5002247;28;20038;-66
2021/05/30 03:39:53;;;;;;;14.93;7.10;;;;;;;8.77;49.40;102928.34;5007114;28;20137;-66
2021/05/30 03:42:25;;;;;;;14.43;5.38;;;;;;;8.67;49.66;102928.28;5003915;28;20279;-66
2021/05/30 03:44:50;;;;;;;9.25;4.72;;;;;;;8.42;48.82;102928.25;5005811;28;20121;-66
2021/05/30 03:47:16;;;;;;;10.65;4.20;;;;;;;8.34;49.66;102919.56;5005708;28;20025;-66
2021/05/30 03:49:42;;;;;;;12.60;4.20;;;;;;;8.60;49.52;102921.34;5006211;28;20481;-67
2021/05/30 03:52:11;;;;;;;13.52;5.10;;;;;;;8.79;49.18;102917.91;5007223;28;20137;-67
2021/05/30 03:54:37;;;;;;;9.77;4.60;;;;;;;8.89;48.72;102924.84;4982800;28;20053;-67
2021/05/30 03:57:03;;;;;;;11.57;5.18;;;;;;;8.73;48.83;102929.19;5006975;28;20038;-68
2021/05/30 03:59:28;;;;;;;23.50;6.50;;;;;;;8.53;49.25;102926.53;5006725;28;20064;-69
2021/05/30 04:01:54;;;;;;;16.40;7.45;;;;;;;8.38;50.15;102920.44;5006940;28;20421;-68
2021/05/30 04:04:20;;;;;;;21.38;8.07;;;;;;;8.64;49.57;102923.09;5006214;28;20128;-68
2021/05/30 04:06:45;;;;;;;13.35;6.55;;;;;;;8.45;49.98;102924.78;5008164;28;20096;-69
2021/05/30 04:09:11;;;;;;;16.00;6.47;;;;;;;8.45;49.71;102911.75;5006266;28;20037;-69
2021/05/30 04:11:36;;;;;;;11.57;6.20;;;;;;;8.55;49.83;102922.19;5005707;28;20068;-68
2021/05/30 04:14:02;;;;;;;14.63;7.05;;;;;;;8.67;50.01;102923.06;5021444;28;20040;-68
2021/05/30 04:16:28;;;;;;;19.40;6.13;;;;;;;8.60;49.76;102922.19;5003917;28;20493;-69
2021/05/30 04:18:54;;;;;;;22.52;7.43;;;;;;;8.76;49.52;102918.78;5007787;28;20383;-70
2021/05/30 04:21:19;;;;;;;18.00;7.35;;;;;;;8.85;49.27;102917.91;5003932;28;20506;-69
2021/05/30 04:23:45;;;;;;;19.73;6.63;;;;;;;8.91;48.43;102925.72;5006485;28;20806;-66
2021/05/30 04:26:10;;;;;;;12.15;5.75;;;;;;;8.87;48.76;102918.75;5000168;28;20034;-67
2021/05/30 04:28:36;;;;;;;16.02;6.10;;;;;;;8.51;49.48;102917.84;5006419;28;20038;-68
2021/05/30 04:31:02;;;;;;;11.00;5.28;;;;;;;8.58;49.06;102923.94;4983461;28;20064;-70
2021/05/30 04:33:27;;;;;;;13.88;6.47;;;;;;;8.59;48.98;102925.69;5005138;28;20030;-68
2021/05/30 04:35:53;;;;;;;13.98;6.40;;;;;;;8.64;48.39;102928.28;5006686;28;20034;-68
2021/05/30 04:38:19;;;;;;;10.73;6.72;;;;;;;8.88;48.76;102928.34;4989782;28;20025;-68
2021/05/30 04:40:46;;;;;;;11.88;5.20;;;;;;;9.09;48.75;102929.19;5007680;28;20038;-68
2021/05/30 04:43:11;;;;;;;11.20;6.07;;;;;;;8.97;47.79;102932.69;5006033;28;20203;-67
2021/05/30 04:45:37;;;;;;;13.20;6.10;;;;;;;8.87;48.94;102937.00;5006191;28;20527;-69
2021/05/30 04:48:03;;;;;;;11.95;6.05;;;;;;;8.97;48.99;102943.13;5006380;28;20038;-66
2021/05/30 04:50:28;;;;;;;14.85;5.88;;;;;;;8.98;48.44;102940.53;5004805;28;20042;-67
2021/05/30 04:52:54;;;;;;;9.75;4.70;;;;;;;8.71;48.87;102940.50;5007422;28;20030;-66
2021/05/30 04:55:19;;;;;;;15.63;4.40;;;;;;;8.77;48.84;102938.75;4998889;28;20057;-67
2021/05/30 04:57:45;;;;;;;13.27;5.03;;;;;;;9.07;47.71;102941.38;5005143;28;20041;-67
2021/05/30 05:00:13;;;;;;;19.88;6.07;;;;;;;9.10;47.99;102938.78;5003446;28;20483;-66
2021/05/30 05:02:39;;;;;;;10.18;4.95;;;;;;;8.85;48.75;102937.88;5005870;28;20037;-66
2021/05/30 05:05:06;;;;;;;12.35;5.13;;;;;;;8.96;48.21;102949.19;5006009;28;20148;-66
2021/05/30 05:07:31;;;;;;;8.45;4.32;;;;;;;8.96;48.10;102942.25;5003836;28;20039;-66
2021/05/30 05:09:57;;;;;;;9.75;4.53;;;;;;;8.93;48.13;102939.63;5009159;28;20219;-67
2021/05/30 05:12:23;;;;;;;9.05;4.47;;;;;;;9.04;48.10;102933.56;4999056;28;20156;-66
2021/05/30 05:14:49;;;;;;;6.47;3.33;;;;;;;9.07;48.01;102930.94;5005725;28;20398;-67
2021/05/30 05:17:14;;;;;;;7.80;3.58;;;;;;;8.72;48.53;102934.44;5004711;28;20506;-66
2021/05/30 05:19:40;;;;;;;10.90;4.45;;;;;;;8.95;48.53;102937.03;5006306;28;20025;-67
2021/05/30 05:22:06;;;;;;;13.30;3.88;;;;;;;8.90;48.43;102937.03;5004883;28;20660;-67
2021/05/30 05:24:32;;;;;;;12.52;4.72;;;;;;;9.31;47.00;102937.88;5005799;28;20041;-67
2021/05/30 05:26:57;;;;;;;10.30;4.15;;;;;;;9.10;48.41;102936.16;5003173;28;20034;-67
2021/05/30 05:29:23;;;;;;;18.35;5.20;;;;;;;8.91;48.43;102938.75;5005899;28;20088;-66
2021/05/30 05:31:48;;;;;;;12.02;4.55;;;;;;;9.15;49.72;102930.06;5004392;28;20060;-67
2021/05/30 05:34:14;;;;;;;13.93;4.72;;;;;;;9.48;47.80;102927.41;5003866;28;20067;-67
2021/05/30 05:36:39;;;;;;;9.70;4.55;;;;;;;9.74;47.18;102933.38;5004851;28;20053;-66
2021/05/30 05:39:05;;;;;;;10.73;4.53;;;;;;;9.75;47.41;102929.91;5009124;28;20028;-66
2021/05/30 05:41:31;;;;;;;12.52;4.32;;;;;;;9.78;47.11;102927.28;5004074;28;20038;-68
2021/05/30 05:43:57;;;;;;;10.10;4.63;;;;;;;9.92;46.73;102932.50;5004163;28;20103;-67
2021/05/30 05:46:23;;;;;;;15.70;4.40;;;;;;;10.00;46.13;102935.91;5004764;28;20101;-67
2021/05/30 05:48:48;;;;;;;16.58;5.28;;;;;;;9.76;47.21;102936.00;5003979;28;20087;-66
2021/05/30 05:51:14;;;;;;;11.02;4.10;;;;;;;9.50;47.19;102933.47;5003219;28;20142;-66
2021/05/30 05:53:39;;;;;;;14.63;5.22;;;;;;;9.27;48.16;102931.75;5003124;28;20413;-66
2021/05/30 05:56:05;;;;;;;14.63;5.50;;;;;;;9.75;47.77;102919.47;5004501;28;20029;-66
2021/05/30 05:58:30;;;;;;;12.20;4.50;;;;;;;10.15;46.68;102921.91;4999047;28;20528;-67
2021/05/30 06:00:56;;;;;;;12.65;5.35;;;;;;;10.05;46.48;102927.19;5019695;28;20041;-67
2021/05/30 06:03:21;;;;;;;11.63;4.78;;;;;;;10.14;46.44;102935.84;5004640;28;20033;-67
2021/05/30 06:05:47;;;;;;;16.90;5.32;;;;;;;9.70;48.10;102929.06;5003760;28;20049;-67
2021/05/30 06:08:12;;;;;;;11.93;5.68;;;;;;;9.85;48.15;102933.38;5008048;28;20033;-67
2021/05/30 06:10:38;;;;;;;14.13;5.32;;;;;;;10.06;46.89;102935.03;5003494;28;20042;-67
2021/05/30 06:13:11;;;;;;;11.45;4.90;;;;;;;9.75;46.60;102944.72;5008406;28;20299;-67
2021/05/30 06:15:39;;;;;;;10.77;4.47;;;;;;;10.01;47.62;102936.78;4998382;28;20077;-66
2021/05/30 06:18:11;;;;;;;13.10;4.38;;;;;;;9.95;45.10;102931.63;5004083;28;20112;-67
2021/05/30 06:20:37;;;;;;;13.43;5.20;;;;;;;10.16;45.73;102936.72;5006189;28;20049;-66
2021/05/30 06:23:03;;;;;;;14.45;4.82;;;;;;;10.15;46.63;102935.00;5004695;28;20049;-67
2021/05/30 06:25:29;;;;;;;12.45;4.53;;;;;;;10.18;46.13;102934.09;5001908;28;20037;-66
2021/05/30 06:27:56;;;;;;;13.63;4.82;;;;;;;10.39;46.06;102925.25;5005651;28;20034;-67
2021/05/30 06:30:27;;;;;;;14.63;6.53;;;;;;;10.18;45.75;102928.88;5004775;28;20119;-67
2021/05/30 06:32:53;;;;;;;15.07;4.57;;;;;;;10.59;44.77;102926.00;4993634;28;20057;-67
2021/05/30 06:35:18;;;;;;;9.80;3.88;;;;;;;10.26;45.28;102927.09;5002358;28;20067;-67
2021/05/30 06:37:44;;;;;;;11.98;3.85;;;;;;;10.70;44.43;102932.88;5004883;28;20030;-67
2021/05/30 06:40:10;;;;;;;13.55;4.38;;;;;;;10.75;43.55;102931.97;4998226;28;20037;-66
2021/05/30 06:42:36;;;;;;;6.55;3.50;;;;;;;10.97;43.48;102927.47;5002576;28;20255;-67
2021/05/30 06:45:03;;;;;;;7.88;3.90;;;;;;;10.79;43.74;102935.41;5004047;28;20030;-66
2021/05/30 06:47:28;;;;;;;9.27;3.97;;;;;;;11.10;43.16;102933.44;5001451;28;20463;-67
2021/05/30 06:49:53;;;;;;;7.32;3.72;;;;;;;11.71;42.80;102931.94;5009437;28;20041;-66
2021/05/30 06:52:19;;;;;;;9.65;4.40;;;;;;;12.20;41.53;102926.06;5002098;28;20557;-68
2021/05/30 06:54:44;;;;;;;11.77;5.10;;;;;;;12.09;41.66;102930.59;5006687;28;20042;-66
2021/05/30 06:57:10;;;;;;;10.10;3.45;;;;;;;12.32;41.27;102932.03;5001050;28;20029;-67
2021/05/30 06:59:35;;;;;;;14.63;4.90;;;;;;;12.39;41.59;102925.81;5004258;28;20032;-67
2021/05/30 07:02:01;;;;;;;10.52;4.03;;;;;;;12.55;40.74;102929.06;5006140;28;20037;-67
2021/05/30 07:04:27;;;;;;;5.78;3.50;;;;;;;12.58;40.53;102927.25;5005729;28;20026;-67
2021/05/30 07:06:53;;;;;;;9.20;4.00;;;;;;;12.58;40.07;102923.75;5007093;28;20065;-67
2021/05/30 07:09:19;;;;;;;11.07;4.18;;;;;;;12.59;40.41;102923.72;5007501;28;20029;-67
2021/05/30 07:11:44;;;;;;;10.88;3.65;;;;;;;12.73;41.78;102925.28;4999730;28;20056;-67
2021/05/30 07:14:10;;;;;;;9.18;3.72;;;;;;;12.82;40.15;102926.00;5007653;28;20448;-68
2021/05/30 07:16:35;;;;;;;14.48;3.95;;;;;;;12.32;41.69;102927.66;5007414;28;20175;-68
2021/05/30 07:19:01;;;;;;;8.00;4.00;;;;;;;12.70;40.59;102924.44;5007658;28;20121;-66
2021/05/30 07:21:26;;;;;;;7.55;3.78;;;;;;;12.80;40.62;102924.28;5008138;28;20113;-66
2021/05/30 07:23:52;;;;;;;9.75;4.75;;;;;;;12.88;39.66;102927.66;5007732;28;20593;-66
2021/05/30 07:26:17;;;;;;;8.90;3.85;;;;;;;15.94;36.26;102918.75;5006729;28;20038;-66
2021/05/30 07:28:45;;;;;;;11.82;4.70;;;;;;;17.34;31.08;102919.44;5002357;28;20038;-65
2021/05/30 07:31:10;;;;;;;8.57;3.13;;;;;;;16.56;32.84;102920.34;5004767;28;20502;-67
2021/05/30 07:33:37;;;;;;;15.07;3.85;;;;;;;14.95;35.47;102919.78;5005280;28;20061;-66
2021/05/30 07:36:03;;;;;;;12.15;4.78;;;;;;;15.04;35.43;102922.16;5007087;28;20086;-66
2021/05/30 07:38:29;;;;;;;9.48;3.28;;;;;;;15.29;36.04;102926.81;4989837;28;20172;-64
2021/05/30 07:40:55;;;;;;;12.73;4.38;;;;;;;14.74;36.41;102924.66;5003050;28;20022;-66
2021/05/30 07:43:20;;;;;;;9.73;4.03;;;;;;;14.06;38.22;102927.16;5007447;28;20025;-66
2021/05/30 07:45:45;;;;;;;9.73;4.13;;;;;;;14.84;36.04;102929.72;5006549;28;20108;-68
2021/05/30 07:48:11;;;;;;;7.00;4.10;;;;;;;14.72;36.79;102930.88;5005736;28;20038;-67
2021/05/30 07:50:36;;;;;;;7.55;3.10;;;;;;;14.55;37.30;102928.66;5007093;28;20037;-66
2021/05/30 07:53:03;;;;;;;7.97;4.00;;;;;;;14.17;37.11;102933.03;5007844;28;20037;-66
2021/05/30 07:55:29;;;;;;;10.00;3.88;;;;;;;15.09;36.08;102930.78;4996401;28;20500;-66
2021/05/30 07:57:55;;;;;;;10.60;3.70;;;;;;;15.46;36.60;102924.56;5003752;28;20040;-66
2021/05/30 08:00:21;;;;;;;9.27;3.50;;;;;;;15.28;35.25;102925.94;5008968;28;20076;-66
2021/05/30 08:02:47;;;;;;;13.20;3.70;;;;;;;14.92;35.90;102927.72;5004714;28;20048;-67
2021/05/30 08:05:18;;;;;;;9.13;3.15;;;;;;;17.43;32.47;102929.66;5005544;28;20355;-66
2021/05/30 08:07:44;;;;;;;6.72;3.88;;;;;;;20.12;28.15;102931.59;5020443;28;20374;-67
2021/05/30 08:10:10;;;;;;;10.02;2.92;;;;;;;21.67;24.32;102938.78;5006192;28;20029;-66
2021/05/30 08:12:36;;;;;;;13.30;4.75;;;;;;;21.29;26.97;102927.56;5005991;28;20029;-67
2021/05/30 08:15:01;;;;;;;4.80;3.40;;;;;;;20.26;27.81;102927.44;5006181;28;20140;-67
2021/05/30 08:17:28;;;;;;;9.23;3.47;;;;;;;18.78;28.97;102935.88;5003374;28;20183;-67
2021/05/30 08:19:54;;;;;;;14.27;5.47;;;;;;;18.46;31.38;102933.66;5003904;28;20065;-66
2021/05/30 08:22:20;;;;;;;14.30;6.40;;;;;;;18.98;29.12;102929.78;5004263;28;20434;-67
2021/05/30 08:24:47;;;;;;;6.45;3.28;;;;;;;19.56;30.13;102929.84;5006067;28;20128;-67
2021/05/30 08:27:14;;;;;;;8.90;3.85;;;;;;;18.41;30.37;102930.34;4998152;28;20032;-66
2021/05/30 08:29:40;;;;;;;8.13;3.83;;;;;;;16.87;32.69;102926.38;5006136;28;20490;-67
2021/05/30 08:32:06;;;;;;;12.73;4.28;;;;;;;15.59;34.67;102925.94;5003012;28;20044;-65
2021/05/30 08:34:32;;;;;;;13.02;3.95;;;;;;;17.63;32.76;102930.75;5003228;28;21116;-65
2021/05/30 08:36:57;;;;;;;11.07;4.03;;;;;;;18.88;31.02;102930.16;5002165;28;20036;-66
2021/05/30 08:39:23;;;;;;;9.68;3.83;;;;;;;18.97;29.60;102936.00;5003088;28;20104;-66
2021/05/30 08:41:48;;;;;;;7.05;3.30;;;;;;;21.45;25.86;102928.44;4985832;28;20056;-66
2021/05/30 08:44:14;;;;;;;12.52;3.60;;;;;;;21.75;26.05;102925.06;5005641;28;20041;-66
2021/05/30 08:46:40;;;;;;;12.02;3.42;;;;;;;22.20;24.83;102925.22;5001996;28;20050;-66
2021/05/30 08:49:06;;;;;;;7.82;3.03;;;;;;;23.04;23.68;102922.91;5001515;28;20231;-68
2021/05/30 08:51:33;;;;;;;10.75;3.00;;;;;;;23.95;22.95;102918.09;5003079;28;20558;-68
2021/05/30 08:53:59;;;;;;;7.93;3.85;;;;;;;22.26;24.54;102924.88;5002084;28;20099;-67
2021/05/30 08:56:25;;;;;;;7.05;2.75;;;;;;;19.70;28.32;102919.47;5002847;28;20026;-67
2021/05/30 08:58:51;;;;;;;7.05;3.15;;;;;;;20.80;26.08;102922.09;5001247;28;20038;-67
2021/05/30 09:01:20;;;;;;;5.93;2.17;;;;;;;22.27;25.08;102918.59;5001969;28;20133;-67
2021/05/30 09:04:07;;;;;;;7.38;3.08;;;;;;;22.18;24.83;102927.97;5002653;28;20036;-67
2021/05/30 09:06:37;;;;;;;7.28;3.03;;;;;;;19.43;28.58;102926.00;5017253;28;20048;-67
2021/05/30 09:09:06;;;;;;;10.00;3.55;;;;;;;19.64;28.26;102924.19;5001960;28;20026;-66
2021/05/30 09:11:50;;;;;;;6.30;3.10;;;;;;;19.52;29.69;102920.28;5002340;28;20528;-66
2021/05/30 09:14:18;;;;;;;7.97;3.30;;;;;;;19.22;29.22;102918.09;5002116;28;20383;-66
2021/05/30 09:16:53;;;;;;;8.30;3.35;;;;;;;18.26;31.41;102921.25;4994743;28;20031;-67
2021/05/30 09:19:52;;;;;;;8.98;3.75;;;;;;;17.85;31.32;102920.22;5001859;28;20067;-67
2021/05/30 09:22:22;;;;;;;11.70;3.53;;;;;;;19.42;28.77;102919.84;4980638;28;20046;-67
2021/05/30 09:24:58;;;;;;;9.43;2.97;;;;;;;19.95;28.88;102913.00;5002033;28;20546;-66
2021/05/30 09:27:25;;;;;;;10.60;3.13;;;;;;;20.72;28.12;102920.69;5017022;28;20118;-66
2021/05/30 09:30:11;;;;;;;10.73;3.10;;;;;;;19.54;29.62;102914.91;5004429;28;20799;-67
2021/05/30 09:33:08;;;;;;;6.15;3.22;;;;;;;19.52;30.13;102914.97;4998413;28;20053;-67
2021/05/30 09:35:37;;;;;;;11.38;4.07;;;;;;;18.88;32.06;102908.97;5015769;28;20041;-66
2021/05/30 09:38:41;;;;;;;10.55;3.83;;;;;;;17.34;32.67;102913.28;4999781;28;20502;-66
2021/05/30 09:41:14;;;;;;;5.60;3.47;;;;;;;17.79;32.76;102915.16;4959546;28;20133;-66
2021/05/30 09:43:52;;;;;;;9.98;3.47;;;;;;;18.38;32.64;102914.56;4947614;28;20073;-66
2021/05/30 09:46:20;;;;;;;13.27;3.55;;;;;;;18.12;32.64;102920.03;4983092;28;20116;-66
2021/05/30 09:48:51;;;;;;;12.25;4.30;;;;;;;18.01;32.76;102916.03;4999452;28;20057;-67
2021/05/30 09:51:37;;;;;;;11.38;4.10;;;;;;;18.63;31.61;102918.84;4990953;28;20030;-67
2021/05/30 09:54:13;;;;;;;12.02;4.20;;;;;;;18.36;31.12;102919.06;5000709;28;20037;-66
2021/05/30 09:56:52;;;;;;;13.00;3.53;;;;;;;18.13;32.14;102919.13;4999943;28;20061;-67
2021/05/30 09:59:20;;;;;;;12.35;4.05;;;;;;;18.25;32.95;102923.94;5001859;28;20065;-66
2021/05/30 10:02:00;;;;;;;12.95;3.88;;;;;;;17.97;32.61;102913.56;5000729;28;20049;-68
2021/05/30 10:04:34;;;;;;;10.98;3.83;;;;;;;17.93;33.90;102920.75;5000844;28;20103;-67
2021/05/30 10:07:01;;;;;;;7.82;4.85;;;;;;;18.16;33.60;102918.97;4999365;28;20033;-68
2021/05/30 10:09:28;;;;;;;9.15;4.15;;;;;;;18.13;33.69;102919.13;5001489;28;20029;-67
2021/05/30 10:11:56;;;;;;;6.18;3.38;;;;;;;18.33;32.50;102921.00;4994804;28;20034;-68
2021/05/30 10:14:22;;;;;;;6.28;3.20;;;;;;;18.89;31.49;102915.13;5000360;28;20025;-68
2021/05/30 10:16:48;;;;;;;7.93;2.88;;;;;;;19.01;31.94;102914.59;4999022;28;20041;-68
2021/05/30 10:19:21;;;;;;;13.02;4.13;;;;;;;18.76;31.11;102912.09;4999624;28;20033;-68
2021/05/30 10:21:49;;;;;;;10.13;3.60;;;;;;;18.49;31.48;102916.78;4998874;28;20045;-68
2021/05/30 10:24:16;;;;;;;15.50;3.95;;;;;;;18.65;32.03;102914.34;4999869;28;20517;-68
2021/05/30 10:26:42;;;;;;;7.53;3.83;;;;;;;18.54;32.26;102916.59;4999178;28;20084;-69
2021/05/30 10:29:16;;;;;;;9.63;3.42;;;;;;;18.18;32.42;102919.78;4999387;28;20441;-68
2021/05/30 10:31:45;;;;;;;8.63;2.85;;;;;;;18.90;32.71;102922.16;4999273;28;21173;-68
2021/05/30 10:34:13;;;;;;;6.30;3.13;;;;;;;18.79;32.56;102916.44;4995692;28;20044;-68
2021/05/30 10:36:40;;;;;;;9.65;3.17;;;;;;;18.93;33.20;102915.88;4999784;28;20030;-68
2021/05/30 10:39:43;;;;;;;8.52;3.97;;;;;;;18.00;33.08;102921.38;4997654;28;20153;-68
2021/05/30 10:42:22;;;;;;;8.20;2.95;;;;;;;17.71;33.23;102915.44;4939110;28;20092;-67
2021/05/30 10:44:53;;;;;;;6.55;2.95;;;;;;;18.23;33.50;102912.59;5007596;28;20148;-68
2021/05/30 10:47:19;;;;;;;9.70;2.97;;;;;;;18.56;33.00;102915.59;4998165;28;20128;-68
2021/05/30 10:50:10;;;;;;;9.10;3.97;;;;;;;18.85;32.39;102911.75;4998952;28;20554;-68
2021/05/30 10:52:39;;;;;;;8.00;3.30;;;;;;;18.08;33.83;102916.66;4999149;28;20069;-68
2021/05/30 10:55:12;;;;;;;6.28;2.90;;;;;;;18.09;33.97;102914.88;5000589;28;20041;-68
2021/05/30 10:57:49;;;;;;;6.47;2.42;;;;;;;19.02;32.32;102907.50;4993655;28;20050;-69
2021/05/30 11:00:17;;;;;;;6.05;4.07;;;;;;;17.70;33.79;102919.00;4998947;28;20036;-69
2021/05/30 11:03:01;;;;;;;7.07;3.33;;;;;;;18.08;33.38;102915.81;4999943;28;20041;-68
2021/05/30 11:05:46;;;;;;;6.18;3.83;;;;;;;18.49;33.46;102919.44;5014767;28;20160;-68
2021/05/30 11:08:30;;;;;;;9.23;4.82;;;;;;;18.97;32.47;102912.16;5015921;28;20045;-68
2021/05/30 11:11:24;;;;;;;8.60;4.95;;;;;;;18.48;33.06;102926.53;4978690;28;20033;-69
2021/05/30 11:13:58;;;;;;;10.25;3.75;;;;;;;18.59;33.36;102917.28;4999507;28;20247;-69
2021/05/30 11:16:25;;;;;;;11.98;4.47;;;;;;;18.86;32.71;102923.19;4999079;28;20034;-68
2021/05/30 11:19:03;;;;;;;11.57;4.80;;;;;;;18.46;33.88;102928.38;5000122;28;20037;-69
2021/05/30 11:21:31;;;;;;;6.57;4.07;;;;;;;18.53;32.79;102922.81;5000248;28;20042;-68
2021/05/30 11:23:59;;;;;;;7.78;5.20;;;;;;;18.12;33.07;102927.97;5000598;28;20065;-68
2021/05/30 11:26:25;;;;;;;13.25;4.50;;;;;;;18.03;33.58;102930.06;4990308;28;20038;-68
2021/05/30 11:28:51;;;;;;;11.32;5.10;;;;;;;18.30;33.81;102926.44;5001527;28;20036;-69